sensor_id;sensor_type;location;lat;lon;timestamp;pressure;altitude;pressure_sealevel;temperature;humidity
70902;BME280;58548;47.210;8.618;2023-05-19T00:02:25;94373.88;;;20.39;34.03
70902;BME280;58548;47.210;8.618;2023-05-19T00:05:00;94357.91;;;20.33;34.02
70902;BME280;58548;47.210;8.618;2023-05-19T00:07:30;94270.13;;;19.79;33.66
70902;BME280;58548;47.210;8.618;2023-05-19T00:09:57;94245.72;;;19.59;34.16
70902;BME280;58548;47.210;8.618;2023-05-19T00:12:26;94356.84;;;20.34;34.25
70902;BME280;58548;47.210;8.618;2023-05-19T00:14:54;94355.25;;;20.33;34.38
70902;BME280;58548;47.210;8.618;2023-05-19T00:17:20;94318.25;;;20.04;34.19
70902;BME280;58548;47.210;8.618;2023-05-19T00:19:46;94255.28;;;19.61;34.46
70902;BME280;58548;47.210;8.618;2023-05-19T00:22:13;94279.13;;;19.78;34.79
70902;BME280;58548;47.210;8.618;2023-05-19T00:24:39;94262.28;;;19.67;34.26
70902;BME280;58548;47.210;8.618;2023-05-19T00:27:04;94236.84;;;19.49;34.43
70902;BME280;58548;47.210;8.618;2023-05-19T00:29:30;94344.66;;;20.16;34.50
70902;BME280;58548;47.210;8.618;2023-05-19T00:31:58;94250.97;;;19.54;35.09
70902;BME280;58548;47.210;8.618;2023-05-19T00:34:24;94262.34;;;19.55;35.04
70902;BME280;58548;47.210;8.618;2023-05-19T00:36:50;94324.94;;;19.90;34.62
70902;BME280;58548;47.210;8.618;2023-05-19T00:39:18;94337.84;;;20.03;34.99
70902;BME280;58548;47.210;8.618;2023-05-19T00:41:47;94250.97;;;19.37;35.23
70902;BME280;58548;47.210;8.618;2023-05-19T00:44:12;94337.69;;;19.93;35.32
70902;BME280;58548;47.210;8.618;2023-05-19T00:46:38;94246.31;;;19.27;35.23
70902;BME280;58548;47.210;8.618;2023-05-19T00:49:05;94338.47;;;19.77;35.27
70902;BME280;58548;47.210;8.618;2023-05-19T00:51:31;94257.16;;;19.26;35.92
70902;BME280;58548;47.210;8.618;2023-05-19T00:53:57;94333.56;;;19.68;35.63
70902;BME280;58548;47.210;8.618;2023-05-19T00:56:24;94326.00;;;19.60;35.88
70902;BME280;58548;47.210;8.618;2023-05-19T00:58:56;94330.28;;;19.61;35.55
70902;BME280;58548;47.210;8.618;2023-05-19T01:01:24;94312.94;;;19.53;36.12
70902;BME280;58548;47.210;8.618;2023-05-19T01:03:51;94286.91;;;19.33;36.18
70902;BME280;58548;47.210;8.618;2023-05-19T01:06:18;94327.53;;;19.56;36.14
70902;BME280;58548;47.210;8.618;2023-05-19T01:08:45;94278.53;;;19.24;35.47
70902;BME280;58548;47.210;8.618;2023-05-19T01:11:13;94223.59;;;18.86;35.78
70902;BME280;58548;47.210;8.618;2023-05-19T01:13:39;94225.69;;;18.83;35.82
70902;BME280;58548;47.210;8.618;2023-05-19T01:16:27;94241.63;;;18.89;35.48
70902;BME280;58548;47.210;8.618;2023-05-19T01:25:08;94319.72;;;19.32;36.35
70902;BME280;58548;47.210;8.618;2023-05-19T01:30:47;94326.50;;;19.28;36.26
70902;BME280;58548;47.210;8.618;2023-05-19T01:33:18;94160.53;;;18.19;36.62
70902;BME280;58548;47.210;8.618;2023-05-19T01:35:47;94243.75;;;18.75;36.88
70902;BME280;58548;47.210;8.618;2023-05-19T01:38:18;94307.72;;;19.12;36.56
70902;BME280;58548;47.210;8.618;2023-05-19T01:40:47;94232.69;;;18.61;36.59
70902;BME280;58548;47.210;8.618;2023-05-19T01:43:19;94227.19;;;18.50;36.34
70902;BME280;58548;47.210;8.618;2023-05-19T01:45:47;94334.75;;;19.14;36.97
70902;BME280;58548;47.210;8.618;2023-05-19T01:48:13;94241.81;;;18.53;36.82
70902;BME280;58548;47.210;8.618;2023-05-19T01:50:41;94333.97;;;19.14;36.63
70902;BME280;58548;47.210;8.618;2023-05-19T01:53:07;94333.16;;;19.13;37.27
70902;BME280;58548;47.210;8.618;2023-05-19T01:55:45;94306.41;;;18.98;36.67
70902;BME280;58548;47.210;8.618;2023-05-19T01:58:46;94144.81;;;18.01;36.56
70902;BME280;58548;47.210;8.618;2023-05-19T02:06:58;94326.03;;;19.14;36.79
70902;BME280;58548;47.210;8.618;2023-05-19T02:12:34;94311.75;;;19.15;36.71
70902;BME280;58548;47.210;8.618;2023-05-19T02:15:14;94274.44;;;18.88;36.79
70902;BME280;58548;47.210;8.618;2023-05-19T02:17:44;94232.69;;;18.61;36.78
70902;BME280;58548;47.210;8.618;2023-05-19T02:20:15;94279.59;;;18.94;36.87
70902;BME280;58548;47.210;8.618;2023-05-19T02:22:41;94287.41;;;19.01;36.74
70902;BME280;58548;47.210;8.618;2023-05-19T02:25:09;94305.91;;;19.13;37.31
70902;BME280;58548;47.210;8.618;2023-05-19T02:27:38;94307.72;;;19.12;37.37
70902;BME280;58548;47.210;8.618;2023-05-19T02:30:10;94212.13;;;18.51;36.98
70902;BME280;58548;47.210;8.618;2023-05-19T02:32:38;94307.25;;;19.16;37.38
70902;BME280;58548;47.210;8.618;2023-05-19T02:35:07;94215.69;;;18.57;37.39
70902;BME280;58548;47.210;8.618;2023-05-19T02:37:38;94298.00;;;19.01;37.14
70902;BME280;58548;47.210;8.618;2023-05-19T02:40:05;94216.50;;;18.45;37.12
70902;BME280;58548;47.210;8.618;2023-05-19T02:42:31;94220.75;;;18.46;36.63
70902;BME280;58548;47.210;8.618;2023-05-19T02:44:56;94308.50;;;18.96;37.29
70902;BME280;58548;47.210;8.618;2023-05-19T02:47:22;94242.91;;;18.57;37.43
70902;BME280;58548;47.210;8.618;2023-05-19T02:49:50;94229.41;;;18.42;37.67
70902;BME280;58548;47.210;8.618;2023-05-19T02:52:18;94168.94;;;18.04;37.07
70902;BME280;58548;47.210;8.618;2023-05-19T02:54:44;94285.97;;;18.81;36.88
70902;BME280;58548;47.210;8.618;2023-05-19T02:57:12;94287.00;;;18.80;37.69
70902;BME280;58548;47.210;8.618;2023-05-19T02:59:38;94258.09;;;18.62;37.08
70902;BME280;58548;47.210;8.618;2023-05-19T03:02:04;94296.09;;;18.84;36.96
70902;BME280;58548;47.210;8.618;2023-05-19T03:04:30;94263.97;;;18.64;37.10
70902;BME280;58548;47.210;8.618;2023-05-19T03:07:06;94286.88;;;18.87;37.72
70902;BME280;58548;47.210;8.618;2023-05-19T03:09:38;94263.19;;;18.80;37.43
70902;BME280;58548;47.210;8.618;2023-05-19T03:12:04;94271.13;;;18.80;37.71
70902;BME280;58548;47.210;8.618;2023-05-19T03:14:34;94180.81;;;18.31;37.35
70902;BME280;58548;47.210;8.618;2023-05-19T03:17:02;94264.34;;;18.84;37.23
70902;BME280;58548;47.210;8.618;2023-05-19T03:19:28;94177.59;;;18.29;37.66
70902;BME280;58548;47.210;8.618;2023-05-19T03:21:53;94192.06;;;18.38;37.70
70902;BME280;58548;47.210;8.618;2023-05-19T03:24:20;94299.16;;;18.93;37.69
70902;BME280;58548;47.210;8.618;2023-05-19T03:26:46;94179.03;;;18.19;38.05
70902;BME280;58548;47.210;8.618;2023-05-19T03:29:17;94280.28;;;18.90;38.04
70902;BME280;58548;47.210;8.618;2023-05-19T03:31:43;94269.75;;;18.78;37.26
70902;BME280;58548;47.210;8.618;2023-05-19T03:34:09;94181.09;;;18.17;37.21
70902;BME280;58548;47.210;8.618;2023-05-19T03:36:35;94194.53;;;18.16;37.16
70902;BME280;58548;47.210;8.618;2023-05-19T03:39:06;94275.13;;;18.54;37.57
70902;BME280;58548;47.210;8.618;2023-05-19T03:41:32;94275.59;;;18.51;37.85
70902;BME280;58548;47.210;8.618;2023-05-19T03:43:58;94201.44;;;18.05;37.53
70902;BME280;58548;47.210;8.618;2023-05-19T03:46:24;94196.41;;;18.03;37.55
70902;BME280;58548;47.210;8.618;2023-05-19T03:48:50;94301.78;;;18.64;37.51
70902;BME280;58548;47.210;8.618;2023-05-19T03:51:16;94261.28;;;18.35;37.45
70902;BME280;58548;47.210;8.618;2023-05-19T03:53:42;94301.91;;;18.58;37.60
70902;BME280;58548;47.210;8.618;2023-05-19T03:56:08;94306.38;;;18.57;38.28
70902;BME280;58548;47.210;8.618;2023-05-19T03:58:38;94292.63;;;18.43;37.79
70902;BME280;58548;47.210;8.618;2023-05-19T04:01:08;94301.47;;;18.49;38.02
70902;BME280;58548;47.210;8.618;2023-05-19T04:03:36;94305.72;;;18.50;37.74
70902;BME280;58548;47.210;8.618;2023-05-19T04:06:04;94277.81;;;18.42;37.84
70902;BME280;58548;47.210;8.618;2023-05-19T04:08:33;94304.78;;;18.56;37.71
70902;BME280;58548;47.210;8.618;2023-05-19T04:10:58;94232.25;;;18.11;38.22
70902;BME280;58548;47.210;8.618;2023-05-19T04:13:24;94299.84;;;18.60;37.65
70902;BME280;58548;47.210;8.618;2023-05-19T04:15:52;94308.91;;;18.64;38.04
70902;BME280;58548;47.210;8.618;2023-05-19T04:18:21;94236.94;;;18.09;37.47
70902;BME280;58548;47.210;8.618;2023-05-19T04:20:46;94199.63;;;17.93;37.74
70902;BME280;58548;47.210;8.618;2023-05-19T04:23:15;94314.22;;;18.64;38.16
70902;BME280;58548;47.210;8.618;2023-05-19T04:25:43;94287.44;;;18.48;38.17
70902;BME280;58548;47.210;8.618;2023-05-19T04:28:09;94292.50;;;18.50;38.07
70902;BME280;58548;47.210;8.618;2023-05-19T04:30:35;94238.78;;;18.20;38.30
70902;BME280;58548;47.210;8.618;2023-05-19T04:33:01;94220.06;;;18.10;38.08
70902;BME280;58548;47.210;8.618;2023-05-19T04:35:27;94218.00;;;18.12;37.81
70902;BME280;58548;47.210;8.618;2023-05-19T04:37:55;94323.13;;;18.75;38.55
70902;BME280;58548;47.210;8.618;2023-05-19T04:40:21;94304.41;;;18.64;38.42
70902;BME280;58548;47.210;8.618;2023-05-19T04:42:49;94229.81;;;18.21;38.19
70902;BME280;58548;47.210;8.618;2023-05-19T04:45:19;94301.06;;;18.69;37.93
70902;BME280;58548;47.210;8.618;2023-05-19T04:47:50;94320.44;;;18.87;38.32
70902;BME280;58548;47.210;8.618;2023-05-19T04:50:17;94271.69;;;18.53;37.87
70902;BME280;58548;47.210;8.618;2023-05-19T04:52:46;94325.97;;;18.85;37.65
70902;BME280;58548;47.210;8.618;2023-05-19T04:55:12;94233.00;;;18.23;38.27
70902;BME280;58548;47.210;8.618;2023-05-19T04:57:40;94318.63;;;18.87;38.27
70902;BME280;58548;47.210;8.618;2023-05-19T05:00:09;94324.81;;;18.93;37.79
70902;BME280;58548;47.210;8.618;2023-05-19T05:02:37;94226.00;;;18.29;38.31
70902;BME280;58548;47.210;8.618;2023-05-19T05:05:04;94323.91;;;18.99;38.12
70902;BME280;58548;47.210;8.618;2023-05-19T05:07:32;94318.13;;;19.02;37.82
70902;BME280;58548;47.210;8.618;2023-05-19T05:10:01;94324.56;;;19.06;38.31
70902;BME280;58548;47.210;8.618;2023-05-19T05:12:32;94318.88;;;19.14;38.04
70902;BME280;58548;47.210;8.618;2023-05-19T05:14:58;94331.66;;;19.18;37.60
70902;BME280;58548;47.210;8.618;2023-05-19T05:17:24;94204.09;;;18.46;37.75
70902;BME280;58548;47.210;8.618;2023-05-19T05:19:51;94238.16;;;18.71;37.63
70902;BME280;58548;47.210;8.618;2023-05-19T05:22:17;94320.75;;;19.31;37.31
70902;BME280;58548;47.210;8.618;2023-05-19T05:24:46;94327.28;;;19.40;37.33
70902;BME280;58548;47.210;8.618;2023-05-19T05:27:12;94271.78;;;19.17;37.93
70902;BME280;58548;47.210;8.618;2023-05-19T05:29:39;94241.84;;;18.99;37.52
70902;BME280;58548;47.210;8.618;2023-05-19T05:32:05;94290.78;;;19.42;37.87
70902;BME280;58548;47.210;8.618;2023-05-19T05:34:33;94259.28;;;19.29;37.53
70902;BME280;58548;47.210;8.618;2023-05-19T05:37:05;94327.94;;;19.82;37.25
70902;BME280;58548;47.210;8.618;2023-05-19T05:39:33;94234.56;;;19.23;37.22
70902;BME280;58548;47.210;8.618;2023-05-19T05:41:59;94323.91;;;19.91;36.78
70902;BME280;58548;47.210;8.618;2023-05-19T05:44:25;94328.19;;;19.97;37.16
70902;BME280;58548;47.210;8.618;2023-05-19T05:46:51;94325.63;;;20.02;36.81
70902;BME280;58548;47.210;8.618;2023-05-19T05:49:22;94308.13;;;20.01;36.30
70902;BME280;58548;47.210;8.618;2023-05-19T05:51:48;94323.13;;;20.13;36.49
70902;BME280;58548;47.210;8.618;2023-05-19T05:54:19;94233.78;;;19.57;36.37
70902;BME280;58548;47.210;8.618;2023-05-19T05:56:49;94237.22;;;19.74;36.67
70902;BME280;58548;47.210;8.618;2023-05-19T05:59:17;94318.66;;;20.36;36.67
70902;BME280;58548;47.210;8.618;2023-05-19T06:01:44;94334.47;;;20.47;35.98
70902;BME280;58548;47.210;8.618;2023-05-19T06:04:10;94233.22;;;19.89;36.00
70902;BME280;58548;47.210;8.618;2023-05-19T06:06:38;94315.19;;;20.52;35.62
70902;BME280;58548;47.210;8.618;2023-05-19T06:09:07;94295.16;;;20.44;35.48
70902;BME280;58548;47.210;8.618;2023-05-19T06:11:33;94252.91;;;20.15;35.29
70902;BME280;58548;47.210;8.618;2023-05-19T06:13:59;94321.66;;;20.61;35.44
70902;BME280;58548;47.210;8.618;2023-05-19T06:16:29;94316.59;;;20.60;35.30
70902;BME280;58548;47.210;8.618;2023-05-19T06:18:55;94315.56;;;20.61;34.68
70902;BME280;58548;47.210;8.618;2023-05-19T06:21:26;94213.66;;;19.95;35.08
70902;BME280;58548;47.210;8.618;2023-05-19T06:23:54;94245.19;;;20.14;35.32
70902;BME280;58548;47.210;8.618;2023-05-19T06:26:20;94314.06;;;20.70;34.72
70902;BME280;58548;47.210;8.618;2023-05-19T06:28:49;94231.94;;;20.14;34.63
70902;BME280;58548;47.210;8.618;2023-05-19T06:31:15;94220.72;;;20.07;34.32
70902;BME280;58548;47.210;8.618;2023-05-19T06:33:40;94320.66;;;20.68;34.51
70902;BME280;58548;47.210;8.618;2023-05-19T06:36:09;94333.94;;;20.68;34.71
70902;BME280;58548;47.210;8.618;2023-05-19T06:38:38;94225.84;;;19.91;34.54
70902;BME280;58548;47.210;8.618;2023-05-19T06:41:06;94312.53;;;20.52;34.59
70902;BME280;58548;47.210;8.618;2023-05-19T06:43:35;94325.28;;;20.55;34.64
70902;BME280;58548;47.210;8.618;2023-05-19T06:46:01;94242.91;;;20.00;35.07
70902;BME280;58548;47.210;8.618;2023-05-19T06:48:26;94321.16;;;20.64;34.70
70902;BME280;58548;47.210;8.618;2023-05-19T06:50:57;94227.16;;;20.11;34.68
70902;BME280;58548;47.210;8.618;2023-05-19T06:53:26;94340.56;;;20.87;34.36
70902;BME280;58548;47.210;8.618;2023-05-19T06:55:52;94308.59;;;20.77;33.96
70902;BME280;58548;47.210;8.618;2023-05-19T06:58:20;94260.53;;;20.51;34.34
70902;BME280;58548;47.210;8.618;2023-05-19T07:00:48;94335.47;;;21.08;34.12
70902;BME280;58548;47.210;8.618;2023-05-19T07:03:14;94339.53;;;21.16;33.74
70902;BME280;58548;47.210;8.618;2023-05-19T07:05:40;94237.19;;;20.53;33.79
70902;BME280;58548;47.210;8.618;2023-05-19T07:08:11;94322.28;;;21.13;34.01
70902;BME280;58548;47.210;8.618;2023-05-19T07:10:37;94326.03;;;21.17;33.63
70902;BME280;58548;47.210;8.618;2023-05-19T07:13:05;94338.78;;;21.20;33.72
70902;BME280;58548;47.210;8.618;2023-05-19T07:15:33;94346.31;;;21.29;33.72
70902;BME280;58548;47.210;8.618;2023-05-19T07:18:01;94229.84;;;20.60;33.89
70902;BME280;58548;47.210;8.618;2023-05-19T07:20:29;94313.81;;;21.16;33.69
70902;BME280;58548;47.210;8.618;2023-05-19T07:22:55;94331.69;;;21.26;34.33
70902;BME280;58548;47.210;8.618;2023-05-19T07:25:23;94249.56;;;20.70;33.86
70902;BME280;58548;47.210;8.618;2023-05-19T07:27:51;94343.72;;;21.34;33.73
70902;BME280;58548;47.210;8.618;2023-05-19T07:30:22;94268.97;;;20.92;33.80
70902;BME280;58548;47.210;8.618;2023-05-19T07:32:50;94339.81;;;21.42;32.90
70902;BME280;58548;47.210;8.618;2023-05-19T07:35:18;94325.56;;;21.26;33.31
70902;BME280;58548;47.210;8.618;2023-05-19T07:37:47;94311.09;;;21.11;33.08
70902;BME280;58548;47.210;8.618;2023-05-19T07:40:13;94316.69;;;21.15;33.27
70902;BME280;58548;47.210;8.618;2023-05-19T07:42:40;94310.53;;;21.09;33.44
70902;BME280;58548;47.210;8.618;2023-05-19T07:45:06;94320.16;;;21.15;33.45
70902;BME280;58548;47.210;8.618;2023-05-19T07:47:32;94322.75;;;21.10;33.68
70902;BME280;58548;47.210;8.618;2023-05-19T07:50:01;94323.75;;;21.04;33.78
70902;BME280;58548;47.210;8.618;2023-05-19T07:52:27;94332.88;;;21.13;33.94
70902;BME280;58548;47.210;8.618;2023-05-19T07:54:58;94337.66;;;21.11;33.67
70902;BME280;58548;47.210;8.618;2023-05-19T07:57:24;94235.03;;;20.50;33.44
70902;BME280;58548;47.210;8.618;2023-05-19T07:59:50;94337.66;;;21.11;33.33
70902;BME280;58548;47.210;8.618;2023-05-19T08:02:15;94250.75;;;20.57;33.82
70902;BME280;58548;47.210;8.618;2023-05-19T08:04:44;94235.03;;;20.50;33.40
70902;BME280;58548;47.210;8.618;2023-05-19T08:07:10;94334.53;;;21.19;33.68
70902;BME280;58548;47.210;8.618;2023-05-19T08:09:36;94334.59;;;21.24;33.36
70902;BME280;58548;47.210;8.618;2023-05-19T08:12:02;94227.72;;;20.62;33.49
70902;BME280;58548;47.210;8.618;2023-05-19T08:14:30;94331.50;;;21.33;33.16
70902;BME280;58548;47.210;8.618;2023-05-19T08:16:57;94328.38;;;21.41;32.82
70902;BME280;58548;47.210;8.618;2023-05-19T08:19:28;94308.63;;;21.32;32.79
70902;BME280;58548;47.210;8.618;2023-05-19T08:21:53;94224.75;;;20.76;33.19
70902;BME280;58548;47.210;8.618;2023-05-19T08:24:20;94324.47;;;21.49;33.21
70902;BME280;58548;47.210;8.618;2023-05-19T08:26:46;94318.13;;;21.55;33.12
70902;BME280;58548;47.210;8.618;2023-05-19T08:29:12;94323.59;;;21.65;33.18
70902;BME280;58548;47.210;8.618;2023-05-19T08:31:42;94326.09;;;21.82;32.56
70902;BME280;58548;47.210;8.618;2023-05-19T08:34:11;94222.31;;;21.34;32.29
70902;BME280;58548;47.210;8.618;2023-05-19T08:36:37;94206.59;;;21.28;32.17
70902;BME280;58548;47.210;8.618;2023-05-19T08:39:03;94226.69;;;21.51;32.49
70902;BME280;58548;47.210;8.618;2023-05-19T08:41:32;94222.47;;;21.55;32.41
70902;BME280;58548;47.210;8.618;2023-05-19T08:43:58;94286.69;;;22.12;31.78
70902;BME280;58548;47.210;8.618;2023-05-19T08:46:26;94315.81;;;22.34;31.76
70902;BME280;58548;47.210;8.618;2023-05-19T08:49:09;94206.38;;;21.67;31.76
70902;BME280;58548;47.210;8.618;2023-05-19T08:52:00;94317.44;;;22.40;31.38
70902;BME280;58548;47.210;8.618;2023-05-19T08:54:39;94283.72;;;22.08;31.33
70902;BME280;58548;47.210;8.618;2023-05-19T08:57:06;94212.75;;;21.66;31.78
70902;BME280;58548;47.210;8.618;2023-05-19T08:59:35;94308.34;;;22.31;31.89
70902;BME280;58548;47.210;8.618;2023-05-19T09:02:02;94220.31;;;21.84;31.77
70902;BME280;58548;47.210;8.618;2023-05-19T09:04:29;94297.56;;;22.48;31.54
70902;BME280;58548;47.210;8.618;2023-05-19T09:06:56;94306.34;;;22.54;31.47
70902;BME280;58548;47.210;8.618;2023-05-19T09:09:23;94289.53;;;22.43;31.52
70902;BME280;58548;47.210;8.618;2023-05-19T09:11:49;94202.75;;;21.83;31.56
70902;BME280;58548;47.210;8.618;2023-05-19T09:14:15;94301.88;;;22.65;31.62
70902;BME280;58548;47.210;8.618;2023-05-19T09:16:41;94230.13;;;22.32;31.44
70902;BME280;58548;47.210;8.618;2023-05-19T09:19:15;94221.09;;;22.33;30.79
70902;BME280;58548;47.210;8.618;2023-05-19T09:21:41;94217.38;;;22.34;31.22
70902;BME280;58548;47.210;8.618;2023-05-19T09:24:12;94298.50;;;22.90;30.94
70902;BME280;58548;47.210;8.618;2023-05-19T09:26:41;94204.59;;;22.36;31.34
70902;BME280;58548;47.210;8.618;2023-05-19T09:29:18;94303.38;;;23.09;30.82
70902;BME280;58548;47.210;8.618;2023-05-19T09:31:57;94209.97;;;22.47;30.46
70902;BME280;58548;47.210;8.618;2023-05-19T09:34:28;94292.69;;;23.14;30.50
70902;BME280;58548;47.210;8.618;2023-05-19T09:36:57;94302.84;;;23.17;30.50
70902;BME280;58548;47.210;8.618;2023-05-19T09:39:25;94299.09;;;23.08;30.88
70902;BME280;58548;47.210;8.618;2023-05-19T09:41:52;94212.97;;;22.55;30.61
70902;BME280;58548;47.210;8.618;2023-05-19T09:44:26;94304.41;;;23.13;30.55
70902;BME280;58548;47.210;8.618;2023-05-19T09:46:57;94203.09;;;22.51;30.82
70902;BME280;58548;47.210;8.618;2023-05-19T09:49:26;94215.91;;;22.64;30.95
70902;BME280;58548;47.210;8.618;2023-05-19T09:51:57;94294.63;;;23.29;30.93
70902;BME280;58548;47.210;8.618;2023-05-19T09:54:24;94302.88;;;23.32;30.99
70902;BME280;58548;47.210;8.618;2023-05-19T09:56:57;94280.00;;;23.42;30.13
70902;BME280;58548;47.210;8.618;2023-05-19T09:59:27;94302.38;;;23.46;30.13
70902;BME280;58548;47.210;8.618;2023-05-19T10:01:58;94307.72;;;23.46;30.50
70902;BME280;58548;47.210;8.618;2023-05-19T10:04:30;94309.31;;;23.47;30.33
70902;BME280;58548;47.210;8.618;2023-05-19T10:07:04;94298.66;;;23.42;30.59
70902;BME280;58548;47.210;8.618;2023-05-19T10:09:35;94230.09;;;23.01;30.21
70902;BME280;58548;47.210;8.618;2023-05-19T10:12:04;94297.88;;;23.57;30.34
70902;BME280;58548;47.210;8.618;2023-05-19T10:14:36;94235.19;;;23.18;30.40
70902;BME280;58548;47.210;8.618;2023-05-19T10:17:02;94228.25;;;23.17;30.32
70902;BME280;58548;47.210;8.618;2023-05-19T10:19:28;94205.84;;;23.13;30.26
70902;BME280;58548;47.210;8.618;2023-05-19T10:21:55;94295.19;;;23.77;29.78
70902;BME280;58548;47.210;8.618;2023-05-19T10:24:25;94295.19;;;23.77;30.37
70902;BME280;58548;47.210;8.618;2023-05-19T10:27:04;94290.66;;;23.88;30.19
70902;BME280;58548;47.210;8.618;2023-05-19T10:29:36;94194.19;;;23.24;30.14
70902;BME280;58548;47.210;8.618;2023-05-19T10:32:15;94212.28;;;23.32;29.74
70902;BME280;58548;47.210;8.618;2023-05-19T10:35:46;94294.91;;;23.79;29.58
70902;BME280;58548;47.210;8.618;2023-05-19T10:41:07;94297.06;;;23.61;30.23
70902;BME280;58548;47.210;8.618;2023-05-19T10:46:46;94186.13;;;22.83;30.21
70902;BME280;58548;47.210;8.618;2023-05-19T10:49:21;94213.84;;;22.97;30.30
70902;BME280;58548;47.210;8.618;2023-05-19T10:51:56;94293.59;;;23.56;30.09
70902;BME280;58548;47.210;8.618;2023-05-19T10:54:41;94196.81;;;22.98;30.58
70902;BME280;58548;47.210;8.618;2023-05-19T10:57:15;94230.34;;;23.10;30.26
70902;BME280;58548;47.210;8.618;2023-05-19T10:59:42;94299.19;;;23.54;30.37
70902;BME280;58548;47.210;8.618;2023-05-19T11:02:38;94303.44;;;23.60;30.54
70902;BME280;58548;47.210;8.618;2023-05-19T11:05:14;94297.34;;;23.60;30.17
70902;BME280;58548;47.210;8.618;2023-05-19T11:07:41;94304.00;;;23.62;30.19
70902;BME280;58548;47.210;8.618;2023-05-19T11:10:09;94294.38;;;23.56;30.00
70902;BME280;58548;47.210;8.618;2023-05-19T11:12:43;94205.31;;;23.00;30.63
70902;BME280;58548;47.210;8.618;2023-05-19T11:15:14;94197.31;;;22.90;30.80
70902;BME280;58548;47.210;8.618;2023-05-19T11:17:44;94202.09;;;22.88;30.84
70902;BME280;58548;47.210;8.618;2023-05-19T11:20:29;94200.00;;;22.95;30.66
70902;BME280;58548;47.210;8.618;2023-05-19T11:23:05;94278.91;;;23.53;30.50
70902;BME280;58548;47.210;8.618;2023-05-19T11:28:14;94289.56;;;23.74;30.97
70902;BME280;58548;47.210;8.618;2023-05-19T11:30:47;94288.53;;;23.80;30.81
70902;BME280;58548;47.210;8.618;2023-05-19T11:33:21;94290.91;;;23.92;30.42
70902;BME280;58548;47.210;8.618;2023-05-19T11:35:53;94212.28;;;23.53;29.95
70902;BME280;58548;47.210;8.618;2023-05-19T11:38:20;94290.38;;;24.16;30.41
70902;BME280;58548;47.210;8.618;2023-05-19T11:40:48;94294.63;;;24.22;30.02
70902;BME280;58548;47.210;8.618;2023-05-19T11:43:22;94283.69;;;24.23;29.66
70902;BME280;58548;47.210;8.618;2023-05-19T11:45:48;94281.00;;;24.23;29.46
70902;BME280;58548;47.210;8.618;2023-05-19T11:48:14;94275.44;;;24.20;29.38
70902;BME280;58548;47.210;8.618;2023-05-19T11:50:43;94178.19;;;23.50;29.91
70902;BME280;58548;47.210;8.618;2023-05-19T11:53:14;94198.72;;;23.60;30.03
70902;BME280;58548;47.210;8.618;2023-05-19T11:55:49;94200.31;;;23.61;30.14
70902;BME280;58548;47.210;8.618;2023-05-19T11:58:15;94284.75;;;24.17;30.31
70902;BME280;58548;47.210;8.618;2023-05-19T12:00:43;94198.97;;;23.58;30.25
70902;BME280;58548;47.210;8.618;2023-05-19T12:03:10;94279.47;;;24.07;30.21
70902;BME280;58548;47.210;8.618;2023-05-19T12:05:43;94172.31;;;23.53;30.27
70902;BME280;58548;47.210;8.618;2023-05-19T12:08:10;94260.22;;;24.15;30.41
70902;BME280;58548;47.210;8.618;2023-05-19T12:10:39;94291.16;;;24.32;29.93
70902;BME280;58548;47.210;8.618;2023-05-19T12:13:08;94271.16;;;24.19;29.90
70902;BME280;58548;47.210;8.618;2023-05-19T12:15:34;94152.59;;;23.44;30.01
70902;BME280;58548;47.210;8.618;2023-05-19T12:18:03;94206.38;;;23.82;30.54
70902;BME280;58548;47.210;8.618;2023-05-19T12:20:32;94182.44;;;23.72;30.20
70902;BME280;58548;47.210;8.618;2023-05-19T12:23:00;94206.91;;;23.89;30.15
70902;BME280;58548;47.210;8.618;2023-05-19T12:25:28;94280.44;;;24.42;30.08
70902;BME280;58548;47.210;8.618;2023-05-19T12:27:59;94199.16;;;23.88;29.95
70902;BME280;58548;47.210;8.618;2023-05-19T12:30:28;94283.63;;;24.39;29.96
70902;BME280;58548;47.210;8.618;2023-05-19T12:32:55;94198.91;;;24.00;30.47
70902;BME280;58548;47.210;8.618;2023-05-19T12:35:31;94280.09;;;24.64;29.83
70902;BME280;58548;47.210;8.618;2023-05-19T12:38:02;94284.63;;;24.64;29.39
70902;BME280;58548;47.210;8.618;2023-05-19T12:40:29;94285.16;;;24.61;29.79
70902;BME280;58548;47.210;8.618;2023-05-19T12:42:55;94274.53;;;24.50;28.62
70902;BME280;58548;47.210;8.618;2023-05-19T12:45:25;94273.25;;;24.37;28.97
70902;BME280;58548;47.210;8.618;2023-05-19T12:47:52;94189.84;;;23.80;29.59
70902;BME280;58548;47.210;8.618;2023-05-19T12:50:18;94272.19;;;24.28;29.54
70902;BME280;58548;47.210;8.618;2023-05-19T12:52:48;94269.03;;;24.21;29.17
70902;BME280;58548;47.210;8.618;2023-05-19T12:55:17;94271.94;;;24.19;29.56
70902;BME280;58548;47.210;8.618;2023-05-19T12:57:48;94274.13;;;24.12;29.78
70902;BME280;58548;47.210;8.618;2023-05-19T13:00:20;94218.66;;;23.83;29.51
70902;BME280;58548;47.210;8.618;2023-05-19T13:05:28;94283.19;;;24.01;29.88
70902;BME280;58548;47.210;8.618;2023-05-19T13:07:55;94268.25;;;24.00;29.96
70902;BME280;58548;47.210;8.618;2023-05-19T13:10:24;94255.19;;;23.98;30.57
70902;BME280;58548;47.210;8.618;2023-05-19T13:12:54;94203.47;;;23.63;29.88
70902;BME280;58548;47.210;8.618;2023-05-19T13:15:28;94167.25;;;23.41;29.98
70902;BME280;58548;47.210;8.618;2023-05-19T13:17:56;94273.06;;;24.08;30.16
70902;BME280;58548;47.210;8.618;2023-05-19T13:20:23;94172.34;;;23.43;30.24
70902;BME280;58548;47.210;8.618;2023-05-19T13:22:49;94273.84;;;24.08;30.50
70902;BME280;58548;47.210;8.618;2023-05-19T13:25:15;94245.06;;;24.00;30.40
70902;BME280;58548;47.210;8.618;2023-05-19T13:27:46;94184.56;;;23.64;29.95
70902;BME280;58548;47.210;8.618;2023-05-19T13:30:17;94174.97;;;23.53;30.01
70902;BME280;58548;47.210;8.618;2023-05-19T13:32:43;94274.13;;;24.02;29.93
70902;BME280;58548;47.210;8.618;2023-05-19T13:35:12;94177.13;;;23.46;29.95
70902;BME280;58548;47.210;8.618;2023-05-19T13:37:40;94261.31;;;24.14;30.02
70902;BME280;58548;47.210;8.618;2023-05-19T13:40:07;94254.91;;;24.05;29.48